createdAt,value
2018-07-11T00:01:49.729Z,96889.02
2018-07-11T00:06:44.287Z,96882.91
2018-07-11T00:11:38.817Z,96888.48
2018-07-11T00:16:33.701Z,96878.42
2018-07-11T00:21:28.224Z,96880.25
2018-07-11T00:26:22.779Z,96880.25
2018-07-11T00:31:17.323Z,96875.23
2018-07-11T00:36:11.898Z,96873.91
2018-07-11T00:41:07.267Z,96868.31
2018-07-11T00:46:02.497Z,96867.80
2018-07-11T00:50:57.570Z,96859.85
2018-07-11T00:55:52.133Z,96865.95
2018-07-11T01:01:02.143Z,96863.02
2018-07-11T01:05:57.008Z,96859.05
2018-07-11T01:10:51.503Z,96868.58
2018-07-11T01:15:46.217Z,96863.00
2018-07-11T01:20:41.168Z,96871.47
2018-07-11T01:25:35.702Z,96878.06
2018-07-11T01:30:30.205Z,96873.25
2018-07-11T01:35:24.715Z,96866.05
2018-07-11T01:40:19.235Z,96869.98
2018-07-11T01:45:13.815Z,96876.59
2018-07-11T01:50:08.329Z,96882.38
2018-07-11T01:55:02.969Z,96869.37
2018-07-11T01:59:58.293Z,96878.64
2018-07-11T02:04:52.860Z,96871.47
2018-07-11T02:09:47.420Z,96872.52
2018-07-11T02:14:41.696Z,96873.05
2018-07-11T02:19:36.805Z,96873.30
2018-07-11T02:24:31.685Z,96874.11
2018-07-11T02:29:27.273Z,96876.23
2018-07-11T02:34:27.028Z,96878.09
2018-07-11T02:39:21.530Z,96877.80
2018-07-11T02:44:16.128Z,96874.60
2018-07-11T02:49:10.736Z,96879.62
2018-07-11T02:54:05.379Z,96876.97
2018-07-11T02:58:59.583Z,96874.57
2018-07-11T03:03:54.105Z,96870.59
2018-07-11T03:08:48.581Z,96879.88
2018-07-11T03:13:43.203Z,96875.92
2018-07-11T03:18:37.745Z,96872.23
2018-07-11T03:23:32.324Z,96874.84
2018-07-11T03:28:26.849Z,96874.30
2018-07-11T03:33:21.416Z,96877.02
2018-07-11T03:38:16.021Z,96877.02
2018-07-11T03:43:10.557Z,96875.13
2018-07-11T03:48:05.095Z,96887.97
2018-07-11T03:52:59.657Z,96897.92
2018-07-11T03:57:54.183Z,96889.13
2018-07-11T04:02:49.146Z,96892.16
2018-07-11T04:07:43.654Z,96892.98
2018-07-11T04:12:38.372Z,96901.16
2018-07-11T04:17:32.875Z,96890.36
2018-07-11T04:22:27.885Z,96894.83
2018-07-11T04:27:22.568Z,96896.70
2018-07-11T04:32:17.194Z,96893.04
2018-07-11T04:37:11.702Z,96898.02
2018-07-11T04:42:06.636Z,96893.55
2018-07-11T04:47:01.230Z,96897.78
2018-07-11T04:51:55.824Z,96902.66
2018-07-11T04:56:50.449Z,96903.80
2018-07-11T05:01:44.998Z,96907.11
2018-07-11T05:06:39.652Z,96898.49
2018-07-11T05:11:34.222Z,96906.49
2018-07-11T05:16:28.762Z,96909.53
2018-07-11T05:21:23.301Z,96906.48
2018-07-11T05:26:17.909Z,96903.89
2018-07-11T05:31:12.463Z,96904.44
2018-07-11T05:36:06.880Z,96904.36
2018-07-11T05:41:01.405Z,96912.36
2018-07-11T05:45:55.849Z,96909.20
2018-07-11T05:50:50.244Z,96920.01
2018-07-11T05:55:44.668Z,96917.77
2018-07-11T06:00:39.043Z,96916.82
2018-07-11T06:05:33.470Z,96917.41
2018-07-11T06:10:27.857Z,96915.56
2018-07-11T06:15:22.343Z,96919.80
2018-07-11T06:20:16.778Z,96921.66
2018-07-11T06:25:11.431Z,96912.79
2018-07-11T06:30:05.890Z,96905.75
2018-07-11T06:35:00.692Z,96914.81
2018-07-11T06:39:55.141Z,96912.72
2018-07-11T06:44:51.538Z,96912.66
2018-07-11T06:49:47.552Z,96915.08
2018-07-11T06:54:42.114Z,96911.28
2018-07-11T06:59:37.492Z,96913.69
2018-07-11T07:04:33.950Z,96916.00
2018-07-11T07:09:28.572Z,96925.08
2018-07-11T07:14:24.145Z,96927.31
2018-07-11T07:19:19.454Z,96922.86
2018-07-11T07:24:38.601Z,96926.52
2018-07-11T07:29:38.081Z,96918.26
2018-07-11T07:34:32.986Z,96917.13
2018-07-11T07:39:28.408Z,96914.22
2018-07-11T07:44:23.410Z,96917.92
2018-07-11T07:49:18.925Z,96915.19
2018-07-11T07:54:14.621Z,96912.11
2018-07-11T07:59:09.469Z,96919.56
2018-07-11T08:04:04.186Z,96907.84
2018-07-11T08:08:59.229Z,96912.76
2018-07-11T08:13:53.998Z,96909.91
2018-07-11T08:18:48.543Z,96905.48
2018-07-11T08:24:00.154Z,96916.82
2018-07-11T08:29:46.719Z,96915.30
2018-07-11T08:34:54.502Z,96901.09
2018-07-11T08:41:04.690Z,96903.84
2018-07-11T08:46:19.354Z,96896.12
2018-07-11T08:51:43.971Z,96898.78
2018-07-11T08:59:11.923Z,96892.31
2018-07-11T09:06:26.049Z,96898.93
2018-07-11T09:15:49.271Z,96886.16
2018-07-11T09:21:02.936Z,96889.72
2018-07-11T09:25:57.876Z,96893.48
2018-07-11T09:30:52.800Z,96886.84
2018-07-11T09:35:47.116Z,96893.85
2018-07-11T09:40:42.152Z,96884.40
2018-07-11T09:45:39.928Z,96876.14
2018-07-11T09:50:35.024Z,96876.17
2018-07-11T09:55:30.026Z,96865.38
2018-07-11T10:00:30.006Z,96869.09
2018-07-11T10:05:24.889Z,96867.18
2018-07-11T10:10:26.163Z,96872.62
2018-07-11T10:15:20.931Z,96864.44
2018-07-11T10:20:15.539Z,96865.28
2018-07-11T10:25:10.956Z,96866.96
2018-07-11T10:30:05.749Z,96869.20
2018-07-11T10:35:00.008Z,96878.38
2018-07-11T10:39:54.860Z,96878.34
2018-07-11T10:44:53.159Z,96894.72
2018-07-11T10:49:48.210Z,96896.12
2018-07-11T10:54:43.060Z,96886.59
2018-07-11T10:59:38.384Z,96889.56
2018-07-11T11:04:33.482Z,96893.74
2018-07-11T11:09:28.325Z,96878.44
2018-07-11T11:14:23.083Z,96877.09
2018-07-11T11:19:18.740Z,96873.76
2018-07-11T11:24:14.160Z,96875.44
2018-07-11T11:29:09.273Z,96877.82
2018-07-11T11:34:04.241Z,96873.27
2018-07-11T11:38:59.235Z,96869.04
2018-07-11T11:43:53.974Z,96867.38
2018-07-11T11:48:48.552Z,96859.07
2018-07-11T11:53:43.790Z,96855.28
2018-07-11T11:58:38.593Z,96858.81
2018-07-11T12:03:34.401Z,96856.62
2018-07-11T12:08:29.258Z,96862.48
2018-07-11T12:13:24.068Z,96859.56
2018-07-11T12:18:19.218Z,96862.98
2018-07-11T12:23:14.168Z,96856.77
2018-07-11T12:28:12.160Z,96864.39
2018-07-11T12:33:07.336Z,96855.44
2018-07-11T12:38:02.337Z,96859.92
2018-07-11T12:42:57.027Z,96862.66
2018-07-11T12:47:56.793Z,96861.95
2018-07-11T12:52:51.636Z,96863.32
2018-07-11T12:57:46.306Z,96858.88
2018-07-11T13:02:40.930Z,96850.89
2018-07-11T13:07:36.049Z,96852.63
2018-07-11T13:12:30.880Z,96855.86
2018-07-11T13:17:28.615Z,96856.15
2018-07-11T13:22:26.098Z,96859.80
2018-07-11T13:27:21.056Z,96862.65
2018-07-11T13:32:16.399Z,96860.02
2018-07-11T13:37:11.861Z,96845.95
2018-07-11T13:42:06.464Z,96851.88
2018-07-11T13:47:01.129Z,96847.27
2018-07-11T13:51:55.456Z,96850.31
2018-07-11T13:56:50.363Z,96844.06
2018-07-11T14:01:51.381Z,96837.36
2018-07-11T14:06:46.403Z,96846.12
2018-07-11T14:11:41.789Z,96844.02
2018-07-11T14:16:36.425Z,96838.42
2018-07-11T14:21:31.013Z,96838.69
2018-07-11T14:26:26.269Z,96851.67
2018-07-11T14:31:33.164Z,96844.55
2018-07-11T14:36:28.027Z,96849.76
2018-07-11T14:41:23.051Z,96842.92
2018-07-11T14:46:19.598Z,96842.11
2018-07-11T14:51:16.138Z,96844.48
2018-07-11T14:56:10.861Z,96847.02
2018-07-11T15:01:05.662Z,96833.88
2018-07-11T15:06:00.250Z,96832.08
2018-07-11T15:10:54.828Z,96831.80
2018-07-11T15:15:49.458Z,96826.04
2018-07-11T15:20:44.275Z,96830.10
2018-07-11T15:25:38.842Z,96839.39
2018-07-11T15:30:33.476Z,96829.72
2018-07-11T15:35:28.229Z,96836.55
2018-07-11T15:40:23.029Z,96830.53
2018-07-11T15:45:17.706Z,96832.53
2018-07-11T15:50:12.557Z,96841.72
2018-07-11T15:55:07.164Z,96840.53
2018-07-11T16:00:09.057Z,96834.93
2018-07-11T16:05:03.792Z,96833.13
2018-07-11T16:09:59.764Z,96847.26
2018-07-11T16:14:54.996Z,96850.78
2018-07-11T16:19:49.822Z,96853.11
2018-07-11T16:24:44.849Z,96850.09
2018-07-11T16:29:39.692Z,96858.59
2018-07-11T16:34:33.920Z,96861.99
2018-07-11T16:39:28.488Z,96862.84
2018-07-11T16:44:23.039Z,96865.59
2018-07-11T16:49:17.920Z,96865.42
2018-07-11T16:54:12.548Z,96875.39
2018-07-11T16:59:07.604Z,96879.16
2018-07-11T17:04:06.928Z,96882.73
2018-07-11T17:09:01.561Z,96874.91
2018-07-11T17:14:01.506Z,96889.38
2018-07-11T17:19:02.525Z,96888.05
2018-07-11T17:24:05.380Z,96889.42
2018-07-11T17:29:02.122Z,96891.49
2018-07-11T17:33:56.654Z,96888.39
2018-07-11T17:38:51.210Z,96895.86
2018-07-11T17:43:51.423Z,96902.84
2018-07-11T17:48:58.651Z,96918.39
2018-07-11T17:53:57.364Z,96911.38
2018-07-11T17:58:55.965Z,96917.55
2018-07-11T18:04:33.021Z,96914.66
2018-07-11T18:09:27.532Z,96915.56
2018-07-11T18:14:43.784Z,96917.33
2018-07-11T18:20:17.358Z,96919.39
2018-07-11T18:27:59.461Z,96923.58
2018-07-11T18:35:10.973Z,96921.66
2018-07-11T18:40:35.030Z,96928.94
2018-07-11T18:47:17.544Z,96930.66
2018-07-11T18:52:23.613Z,96942.34
2018-07-11T18:57:59.197Z,96933.32
2018-07-11T19:04:09.118Z,96946.66
2018-07-11T19:09:10.276Z,96954.40
2018-07-11T19:14:07.705Z,96949.66
2018-07-11T19:19:09.775Z,96966.44
2018-07-11T19:24:08.968Z,96974.70
2018-07-11T19:30:15.872Z,96973.81
2018-07-11T19:37:24.009Z,96979.72
2018-07-11T19:42:34.682Z,96990.20
2018-07-11T19:47:45.709Z,96989.73
2018-07-11T19:52:53.131Z,96994.30
2018-07-11T19:57:47.671Z,96994.31
2018-07-11T20:02:42.291Z,97006.30
2018-07-11T20:07:36.861Z,97009.27
2018-07-11T20:12:31.517Z,97014.07
2018-07-11T20:17:26.369Z,97021.77
2018-07-11T20:22:20.974Z,97016.21
2018-07-11T20:27:15.497Z,97018.61
2018-07-11T20:32:10.198Z,97017.81
2018-07-11T20:37:04.780Z,97027.90
2018-07-11T20:41:59.796Z,97028.17
2018-07-11T20:46:54.556Z,97031.05
2018-07-11T20:51:49.122Z,97037.41
2018-07-11T20:56:43.677Z,97039.24
2018-07-11T21:01:55.008Z,97031.81
2018-07-11T21:07:06.283Z,97038.18
2018-07-11T21:14:22.287Z,97039.50
2018-07-11T21:19:16.829Z,97039.22
2018-07-11T21:24:12.444Z,97042.09
2018-07-11T21:29:07.024Z,97043.41
2018-07-11T21:34:01.577Z,97043.36
2018-07-11T21:38:56.042Z,97052.13
2018-07-11T21:43:50.564Z,97046.26
2018-07-11T21:48:45.552Z,97038.78
2018-07-11T21:53:40.042Z,97041.88
2018-07-11T21:58:34.599Z,97046.86
2018-07-11T22:03:29.185Z,97039.08
2018-07-11T22:08:23.692Z,97048.31
2018-07-11T22:13:18.429Z,97042.45
2018-07-11T22:18:29.617Z,97043.59
2018-07-11T22:23:22.421Z,97046.41
2018-07-11T22:28:15.189Z,97047.36
2018-07-11T22:33:07.953Z,97046.44
2018-07-11T22:38:00.740Z,97045.08
2018-07-11T22:42:53.549Z,97044.40
2018-07-11T22:47:46.337Z,97042.80
2018-07-11T22:52:39.454Z,97039.73
2018-07-11T22:57:32.152Z,97044.47
2018-07-11T23:02:24.906Z,97050.80
2018-07-11T23:07:17.697Z,97056.95
2018-07-11T23:12:10.468Z,97056.76
2018-07-11T23:17:03.777Z,97056.17
2018-07-11T23:21:56.844Z,97056.21
2018-07-11T23:26:49.633Z,97046.84
2018-07-11T23:31:42.553Z,97047.52
2018-07-11T23:36:35.350Z,97037.40
2018-07-11T23:41:28.119Z,97043.02
2018-07-11T23:46:21.231Z,97044.95
2018-07-11T23:51:14.061Z,97039.08
2018-07-11T23:56:06.895Z,97040.34
